createdAt,value
2023-02-22T00:02:59.823Z,7.20
2023-02-22T00:05:31.444Z,7.20
2023-02-22T00:08:00.869Z,7.20
2023-02-22T00:10:30.091Z,7.20
2023-02-22T00:12:57.951Z,7.20
2023-02-22T00:15:28.260Z,7.70
2023-02-22T00:17:57.053Z,7.20
2023-02-22T00:20:25.273Z,7.80
2023-02-22T00:22:53.369Z,8.10
2023-02-22T00:25:22.604Z,7.60
2023-02-22T00:27:52.956Z,7.30
2023-02-22T00:30:26.586Z,7.20
2023-02-22T00:32:56.906Z,7.20
2023-02-22T00:35:31.744Z,7.20
2023-02-22T00:38:02.933Z,7.10
2023-02-22T00:40:32.788Z,7.10
2023-02-22T00:43:04.926Z,7.20
2023-02-22T00:45:34.852Z,7.10
2023-02-22T00:48:03.946Z,7.10
2023-02-22T00:50:32.899Z,7.50
2023-02-22T00:53:03.674Z,7.10
2023-02-22T00:55:33.853Z,7.10
2023-02-22T00:58:03.424Z,7.70
2023-02-22T01:00:33.150Z,7.00
2023-02-22T01:03:01.147Z,7.90
2023-02-22T01:05:30.837Z,7.00
2023-02-22T01:08:01.095Z,7.00
2023-02-22T01:10:31.127Z,7.00
2023-02-22T01:13:00.297Z,7.00
2023-02-22T01:15:31.450Z,7.00
2023-02-22T01:18:00.828Z,7.00
2023-02-22T01:20:30.135Z,7.90
2023-02-22T01:23:00.458Z,7.00
2023-02-22T01:25:30.362Z,7.00
2023-02-22T01:27:59.982Z,7.30
2023-02-22T01:30:32.801Z,7.40
2023-02-22T01:33:01.189Z,7.00
2023-02-22T01:35:31.014Z,6.90
2023-02-22T01:37:59.403Z,6.90
2023-02-22T01:40:30.627Z,7.00
2023-02-22T01:43:00.691Z,7.00
2023-02-22T01:45:45.316Z,7.00
2023-02-22T01:48:17.129Z,7.00
2023-02-22T01:50:48.581Z,7.30
2023-02-22T01:53:21.727Z,8.30
2023-02-22T01:55:50.102Z,7.00
2023-02-22T01:58:19.606Z,7.60
2023-02-22T02:00:48.886Z,7.20
2023-02-22T02:03:21.591Z,7.10
2023-02-22T02:05:50.393Z,7.10
2023-02-22T02:08:26.089Z,7.10
2023-02-22T02:10:55.823Z,7.20
2023-02-22T02:13:23.903Z,7.50
2023-02-22T02:15:55.394Z,7.20
2023-02-22T02:18:25.187Z,7.20
2023-02-22T02:21:24.350Z,7.30
2023-02-22T02:24:20.346Z,7.30
2023-02-22T02:27:23.938Z,7.30
2023-02-22T02:30:31.097Z,7.50
2023-02-22T02:33:05.692Z,7.40
2023-02-22T02:35:45.898Z,7.40
2023-02-22T02:38:23.379Z,7.40
2023-02-22T02:40:59.840Z,7.40
2023-02-22T02:43:33.389Z,7.40
2023-02-22T02:46:08.544Z,7.40
2023-02-22T02:48:41.456Z,7.40
2023-02-22T02:51:14.309Z,7.40
2023-02-22T02:53:46.426Z,7.40
2023-02-22T02:56:14.351Z,7.40
2023-02-22T02:58:49.033Z,7.90
2023-02-22T03:01:26.950Z,7.40
2023-02-22T03:04:24.104Z,7.40
2023-02-22T03:07:12.817Z,7.40
2023-02-22T03:09:50.990Z,7.50
2023-02-22T03:12:27.635Z,7.50
2023-02-22T03:15:06.847Z,7.50
2023-02-22T03:17:47.168Z,7.50
2023-02-22T03:20:23.598Z,7.50
2023-02-22T03:22:56.318Z,7.40
2023-02-22T03:25:31.432Z,7.40
2023-02-22T03:28:03.304Z,7.40
2023-02-22T03:30:37.500Z,7.40
2023-02-22T03:33:09.879Z,7.30
2023-02-22T03:35:44.110Z,7.30
2023-02-22T03:38:14.409Z,8.10
2023-02-22T03:40:45.565Z,7.10
2023-02-22T03:43:17.579Z,7.00
2023-02-22T03:45:48.079Z,6.90
2023-02-22T03:48:20.859Z,7.10
2023-02-22T03:50:50.981Z,7.70
2023-02-22T03:53:20.117Z,6.60
2023-02-22T03:55:51.568Z,6.60
2023-02-22T03:58:22.644Z,6.50
2023-02-22T04:00:57.623Z,6.30
2023-02-22T04:03:25.587Z,6.90
2023-02-22T04:05:54.782Z,6.10
2023-02-22T04:08:22.751Z,6.00
2023-02-22T04:10:50.605Z,5.90
2023-02-22T04:13:18.951Z,6.40
2023-02-22T04:15:46.884Z,5.70
2023-02-22T04:18:15.038Z,5.60
2023-02-22T04:20:44.618Z,5.60
2023-02-22T04:23:14.000Z,5.50
2023-02-22T04:25:41.906Z,5.50
2023-02-22T04:28:09.788Z,5.40
2023-02-22T04:30:37.769Z,5.40
2023-02-22T04:33:05.776Z,5.30
2023-02-22T04:35:35.482Z,5.10
2023-02-22T04:38:04.258Z,5.00
2023-02-22T04:40:33.639Z,4.90
2023-02-22T04:43:01.861Z,4.90
2023-02-22T04:45:29.720Z,4.70
2023-02-22T04:47:57.590Z,4.60
2023-02-22T04:50:25.646Z,4.50
2023-02-22T04:52:53.492Z,4.50
2023-02-22T04:55:22.391Z,4.40
2023-02-22T04:57:51.639Z,4.40
2023-02-22T05:00:21.709Z,4.30
2023-02-22T05:02:50.652Z,4.20
2023-02-22T05:05:21.317Z,4.30
2023-02-22T05:07:49.429Z,4.00
2023-02-22T05:10:18.711Z,4.00
2023-02-22T05:12:46.677Z,3.90
2023-02-22T05:15:19.516Z,3.80
2023-02-22T05:17:48.145Z,3.70
2023-02-22T05:20:24.268Z,3.60
2023-02-22T05:22:52.448Z,4.30
2023-02-22T05:25:21.382Z,3.60
2023-02-22T05:27:52.628Z,3.60
2023-02-22T05:30:24.198Z,3.60
2023-02-22T05:32:52.228Z,4.10
2023-02-22T05:35:20.997Z,3.50
2023-02-22T05:37:50.626Z,3.50
2023-02-22T05:40:19.124Z,3.40
2023-02-22T05:42:48.958Z,3.40
2023-02-22T05:45:17.884Z,3.40
2023-02-22T05:47:47.529Z,3.30
2023-02-22T05:50:16.399Z,3.80
2023-02-22T05:52:44.446Z,3.20
2023-02-22T05:55:15.270Z,3.20
2023-02-22T05:57:43.143Z,3.20
2023-02-22T06:00:12.423Z,3.30
2023-02-22T06:02:40.292Z,3.30
2023-02-22T06:05:10.289Z,3.30
2023-02-22T06:07:38.224Z,3.20
2023-02-22T06:10:06.731Z,3.10
2023-02-22T06:12:34.609Z,3.10
2023-02-22T06:15:02.779Z,3.10
2023-02-22T06:17:30.658Z,3.70
2023-02-22T06:19:58.533Z,3.00
2023-02-22T06:22:27.965Z,3.00
2023-02-22T06:24:55.865Z,3.00
2023-02-22T06:27:23.771Z,2.90
2023-02-22T06:29:51.593Z,2.90
2023-02-22T06:32:19.513Z,2.90
2023-02-22T06:34:48.477Z,2.90
2023-02-22T06:37:16.389Z,2.90
2023-02-22T06:39:45.628Z,2.90
2023-02-22T06:42:13.515Z,2.90
2023-02-22T06:44:41.423Z,2.90
2023-02-22T06:47:09.285Z,2.90
2023-02-22T06:49:37.148Z,2.90
2023-02-22T06:52:06.558Z,2.90
2023-02-22T06:54:34.543Z,3.00
2023-02-22T06:57:03.771Z,3.00
2023-02-22T06:59:31.642Z,3.10
2023-02-22T07:01:59.472Z,3.20
2023-02-22T07:04:27.356Z,3.20
2023-02-22T07:06:55.199Z,3.30
2023-02-22T07:09:23.145Z,3.30
2023-02-22T07:11:51.121Z,3.40
2023-02-22T07:14:20.372Z,3.50
2023-02-22T07:16:48.257Z,3.50
2023-02-22T07:19:16.178Z,3.60
2023-02-22T07:21:44.074Z,4.30
2023-02-22T07:24:11.963Z,3.70
2023-02-22T07:26:41.311Z,3.80
2023-02-22T07:29:11.223Z,4.00
2023-02-22T07:31:40.620Z,4.00
2023-02-22T07:34:08.490Z,4.20
2023-02-22T07:36:36.439Z,4.30
2023-02-22T07:39:04.379Z,4.40
2023-02-22T07:41:32.230Z,4.40
2023-02-22T07:44:00.114Z,5.20
2023-02-22T07:46:28.063Z,4.60
2023-02-22T07:48:57.326Z,4.70
2023-02-22T07:51:25.245Z,4.80
2023-02-22T07:53:53.082Z,4.90
2023-02-22T07:56:21.045Z,5.00
2023-02-22T07:58:48.929Z,5.20
2023-02-22T08:01:17.206Z,5.30
2023-02-22T08:03:47.426Z,5.40
2023-02-22T08:06:16.768Z,6.10
2023-02-22T08:08:44.776Z,5.70
2023-02-22T08:11:12.677Z,5.90
2023-02-22T08:13:40.896Z,7.30
2023-02-22T08:16:09.124Z,7.10
2023-02-22T08:18:38.276Z,6.20
2023-02-22T08:21:06.533Z,6.60
2023-02-22T08:23:35.864Z,6.60
2023-02-22T08:26:08.027Z,7.00
2023-02-22T08:28:36.214Z,6.90
2023-02-22T08:31:07.106Z,7.00
2023-02-22T08:33:35.482Z,7.20
2023-02-22T08:36:03.496Z,7.70
2023-02-22T08:38:33.873Z,7.50
2023-02-22T08:41:03.124Z,7.70
2023-02-22T08:43:31.111Z,8.30
2023-02-22T08:45:59.061Z,8.60
2023-02-22T08:48:27.314Z,8.20
2023-02-22T08:50:55.226Z,8.40
2023-02-22T08:53:23.126Z,8.60
2023-02-22T08:55:51.028Z,8.70
2023-02-22T08:58:20.264Z,9.20
2023-02-22T09:00:48.223Z,9.00
2023-02-22T09:03:17.026Z,9.10
2023-02-22T09:05:45.461Z,9.20
2023-02-22T09:08:13.568Z,9.30
2023-02-22T09:10:41.737Z,9.50
2023-02-22T09:13:10.035Z,9.70
2023-02-22T09:15:40.051Z,9.80
2023-02-22T09:18:09.209Z,9.90
2023-02-22T09:20:37.147Z,10.10
2023-02-22T09:23:06.189Z,11.30
2023-02-22T09:25:35.689Z,10.20
2023-02-22T09:28:03.632Z,10.40
2023-02-22T09:30:33.953Z,10.50
2023-02-22T09:33:05.544Z,10.60
2023-02-22T09:35:36.151Z,10.70
2023-02-22T09:38:07.174Z,10.80
2023-02-22T09:40:44.704Z,10.90
2023-02-22T09:43:26.020Z,11.20
2023-02-22T09:46:04.059Z,11.10
2023-02-22T09:48:37.301Z,11.30
2023-02-22T09:51:12.846Z,11.30
2023-02-22T09:53:46.289Z,11.50
2023-02-22T09:56:18.113Z,11.50
2023-02-22T09:58:48.262Z,11.60
2023-02-22T10:01:26.938Z,11.60
2023-02-22T10:04:02.697Z,11.60
2023-02-22T10:06:33.529Z,11.70
2023-02-22T10:09:07.726Z,11.90
2023-02-22T10:11:50.596Z,12.00
2023-02-22T10:14:49.915Z,12.10
2023-02-22T10:17:29.630Z,12.20
2023-02-22T10:20:15.562Z,12.40
2023-02-22T10:23:02.087Z,12.40
2023-02-22T10:25:34.910Z,12.50
2023-02-22T10:28:12.331Z,12.60
2023-02-22T10:30:44.779Z,12.70
2023-02-22T10:33:18.178Z,12.80
2023-02-22T10:35:48.438Z,12.90
2023-02-22T10:38:21.126Z,13.00
2023-02-22T10:40:54.697Z,13.00
2023-02-22T10:43:23.946Z,12.90
2023-02-22T10:45:53.842Z,12.90
2023-02-22T10:48:23.933Z,13.00
2023-02-22T10:50:55.328Z,13.00
2023-02-22T10:53:23.164Z,13.00
2023-02-22T10:56:16.863Z,13.10
2023-02-22T10:58:48.177Z,13.10
2023-02-22T11:01:21.867Z,13.20
2023-02-22T11:04:02.424Z,13.30
2023-02-22T11:06:33.153Z,13.40
2023-02-22T11:09:14.188Z,13.40
2023-02-22T11:11:44.321Z,13.40
2023-02-22T11:14:13.259Z,13.50
2023-02-22T11:16:44.266Z,13.50
2023-02-22T11:19:24.284Z,13.60
2023-02-22T11:21:56.954Z,13.80
2023-02-22T11:24:30.306Z,13.90
2023-02-22T11:27:02.677Z,13.90
2023-02-22T11:29:32.988Z,14.10
2023-02-22T11:32:04.354Z,14.30
2023-02-22T11:34:36.391Z,14.40
2023-02-22T11:37:30.508Z,14.50
2023-02-22T11:40:19.683Z,14.40
2023-02-22T11:42:48.465Z,14.40
2023-02-22T11:45:20.743Z,14.40
2023-02-22T11:47:54.834Z,14.40
2023-02-22T11:50:31.430Z,14.20
2023-02-22T11:53:23.104Z,14.20
2023-02-22T11:56:01.924Z,14.20
2023-02-22T11:58:42.740Z,14.10
2023-02-22T12:01:17.482Z,14.00
2023-02-22T12:04:14.049Z,14.00
2023-02-22T12:06:51.289Z,14.00
2023-02-22T12:09:27.992Z,14.10
2023-02-22T12:12:05.966Z,14.20
2023-02-22T12:14:42.630Z,14.20
2023-02-22T12:17:43.593Z,14.30
2023-02-22T12:20:22.394Z,14.40
2023-02-22T12:23:00.922Z,14.40
2023-02-22T12:25:40.850Z,14.40
2023-02-22T12:28:24.660Z,14.70
2023-02-22T12:31:00.517Z,14.50
2023-02-22T12:33:32.443Z,14.50
2023-02-22T12:36:01.569Z,14.60
2023-02-22T12:38:37.197Z,14.60
2023-02-22T12:41:13.891Z,14.70
2023-02-22T12:43:47.355Z,14.90
2023-02-22T12:46:20.815Z,15.10
2023-02-22T12:48:55.252Z,15.00
2023-02-22T12:51:30.871Z,15.10
2023-02-22T12:54:14.450Z,14.90
2023-02-22T12:56:50.523Z,15.00
2023-02-22T12:59:24.492Z,15.00
2023-02-22T13:01:56.262Z,15.00
2023-02-22T13:04:24.351Z,15.20
2023-02-22T13:07:19.548Z,15.10
2023-02-22T13:10:35.157Z,15.10
2023-02-22T13:13:12.626Z,15.20
2023-02-22T13:15:49.782Z,15.40
2023-02-22T13:18:24.128Z,15.30
2023-02-22T13:20:58.749Z,15.50
2023-02-22T13:23:38.912Z,15.50
2023-02-22T13:26:12.484Z,14.90
2023-02-22T13:28:47.544Z,15.40
2023-02-22T13:31:46.745Z,15.70
2023-02-22T13:34:39.330Z,15.60
2023-02-22T13:37:42.347Z,15.60
2023-02-22T13:40:39.069Z,15.70
2023-02-22T13:43:33.761Z,15.50
2023-02-22T13:46:42.318Z,15.60
2023-02-22T13:49:25.679Z,15.70
2023-02-22T13:51:56.564Z,15.70
2023-02-22T13:54:29.883Z,15.60
2023-02-22T13:56:58.654Z,15.70
2023-02-22T13:59:29.858Z,15.70
2023-02-22T14:02:00.962Z,15.70
2023-02-22T14:04:49.277Z,15.80
2023-02-22T14:07:46.704Z,15.80
2023-02-22T14:10:40.641Z,15.70
2023-02-22T14:13:08.843Z,15.70
2023-02-22T14:15:36.967Z,15.70
2023-02-22T14:18:07.373Z,15.70
2023-02-22T14:20:37.037Z,15.60
2023-02-22T14:23:41.427Z,15.40
2023-02-22T14:26:16.950Z,15.40
2023-02-22T14:28:57.401Z,15.30
2023-02-22T14:31:37.320Z,15.30
2023-02-22T14:34:10.019Z,15.20
2023-02-22T14:36:50.774Z,15.20
2023-02-22T14:39:25.397Z,15.10
2023-02-22T14:42:01.333Z,15.10
2023-02-22T14:44:35.878Z,15.00
2023-02-22T14:47:08.310Z,15.40
2023-02-22T14:49:43.861Z,14.90
2023-02-22T14:52:22.391Z,14.80
2023-02-22T14:55:08.194Z,14.80
2023-02-22T14:57:53.536Z,14.80
2023-02-22T15:00:30.947Z,14.70
2023-02-22T15:03:00.266Z,14.60
2023-02-22T15:05:31.975Z,14.60
2023-02-22T15:08:02.125Z,14.50
2023-02-22T15:10:31.852Z,14.40
2023-02-22T15:13:12.503Z,14.40
2023-02-22T15:15:47.448Z,14.40
2023-02-22T15:18:23.022Z,14.20
2023-02-22T15:20:57.636Z,14.40
2023-02-22T15:23:30.199Z,14.20
2023-02-22T15:25:58.897Z,14.20
2023-02-22T15:28:30.870Z,14.00
2023-02-22T15:31:18.569Z,14.00
2023-02-22T15:33:46.992Z,13.90
2023-02-22T15:36:17.975Z,13.90
2023-02-22T15:38:50.255Z,13.80
2023-02-22T15:41:27.811Z,13.70
2023-02-22T15:44:14.255Z,13.60
2023-02-22T15:46:50.510Z,13.60
2023-02-22T15:49:24.397Z,13.40
2023-02-22T15:52:07.855Z,13.60
2023-02-22T15:54:45.163Z,13.40
2023-02-22T15:57:16.711Z,13.40
2023-02-22T15:59:49.591Z,13.30
2023-02-22T16:02:34.144Z,12.30
2023-02-22T16:05:05.541Z,13.10
2023-02-22T16:07:37.796Z,13.30
2023-02-22T16:10:09.106Z,12.90
2023-02-22T16:12:37.103Z,12.90
2023-02-22T16:15:15.382Z,12.80
2023-02-22T16:17:55.880Z,12.70
2023-02-22T16:20:33.502Z,12.60
2023-02-22T16:23:23.775Z,12.50
2023-02-22T16:26:08.153Z,12.40
2023-02-22T16:28:36.077Z,12.30
2023-02-22T16:31:04.679Z,12.20
2023-02-22T16:33:33.786Z,12.10
2023-02-22T16:36:07.876Z,12.00
2023-02-22T16:38:39.117Z,11.80
2023-02-22T16:41:08.413Z,11.70
2023-02-22T16:43:36.975Z,11.60
2023-02-22T16:46:07.312Z,11.50
2023-02-22T16:48:38.049Z,11.40
2023-02-22T16:51:14.740Z,11.30
2023-02-22T16:53:44.520Z,11.20
2023-02-22T16:56:16.157Z,11.10
2023-02-22T16:58:45.123Z,11.00
2023-02-22T17:01:13.427Z,11.00
2023-02-22T17:03:41.351Z,10.90
2023-02-22T17:06:10.956Z,10.80
2023-02-22T17:08:38.939Z,10.80
2023-02-22T17:11:08.963Z,10.70
2023-02-22T17:13:36.996Z,10.60
2023-02-22T17:16:05.542Z,10.50
2023-02-22T17:18:34.348Z,10.50
2023-02-22T17:21:03.110Z,10.40
2023-02-22T17:23:31.023Z,10.30
2023-02-22T17:26:02.014Z,10.20
2023-02-22T17:28:32.227Z,10.10
2023-02-22T17:31:02.452Z,10.10
2023-02-22T17:33:32.845Z,10.00
2023-02-22T17:36:02.834Z,9.90
2023-02-22T17:38:31.649Z,9.80
2023-02-22T17:41:01.296Z,9.70
2023-02-22T17:43:31.098Z,9.60
2023-02-22T17:45:59.034Z,9.60
2023-02-22T17:48:27.597Z,9.50
2023-02-22T17:50:55.913Z,9.40
2023-02-22T17:53:25.326Z,9.30
2023-02-22T17:55:53.840Z,9.20
2023-02-22T17:58:23.523Z,9.20
2023-02-22T18:00:57.495Z,9.10
2023-02-22T18:03:26.408Z,9.10
2023-02-22T18:05:57.511Z,9.00
2023-02-22T18:08:26.346Z,9.00
2023-02-22T18:10:56.349Z,9.00
2023-02-22T18:13:26.296Z,8.90
2023-02-22T18:15:59.961Z,8.90
2023-02-22T18:18:28.483Z,8.90
2023-02-22T18:20:59.556Z,9.30
2023-02-22T18:23:31.651Z,8.80
2023-02-22T18:26:11.144Z,8.80
2023-02-22T18:28:40.309Z,8.70
2023-02-22T18:31:13.428Z,8.80
2023-02-22T18:33:42.822Z,8.60
2023-02-22T18:36:12.340Z,8.60
2023-02-22T18:38:42.927Z,8.60
2023-02-22T18:41:12.853Z,8.60
2023-02-22T18:43:41.719Z,8.60
2023-02-22T18:46:12.870Z,8.60
2023-02-22T18:48:40.927Z,8.50
2023-02-22T18:51:11.269Z,8.80
2023-02-22T18:53:40.824Z,8.50
2023-02-22T18:56:11.152Z,8.50
2023-02-22T18:58:39.824Z,8.50
2023-02-22T19:01:14.537Z,8.50
2023-02-22T19:03:42.844Z,8.40
2023-02-22T19:06:11.123Z,8.40
2023-02-22T19:08:40.249Z,8.40
2023-02-22T19:11:10.492Z,8.50
2023-02-22T19:13:39.402Z,8.50
2023-02-22T19:16:08.306Z,8.50
2023-02-22T19:18:38.345Z,8.40
2023-02-22T19:21:09.409Z,8.30
2023-02-22T19:23:39.552Z,8.30
2023-02-22T19:26:09.260Z,8.30
2023-02-22T19:28:37.181Z,8.20
2023-02-22T19:31:13.388Z,8.20
2023-02-22T19:33:43.032Z,8.10
2023-02-22T19:36:12.259Z,8.10
2023-02-22T19:38:40.586Z,8.10
2023-02-22T19:41:10.376Z,8.00
2023-02-22T19:43:38.402Z,8.00
2023-02-22T19:46:07.407Z,7.90
2023-02-22T19:48:35.939Z,7.90
2023-02-22T19:51:07.183Z,8.00
2023-02-22T19:53:35.677Z,7.90
2023-02-22T19:56:09.538Z,7.80
2023-02-22T19:58:38.047Z,7.80
2023-02-22T20:01:13.300Z,7.80
2023-02-22T20:03:42.162Z,7.80
2023-02-22T20:06:11.935Z,7.70
2023-02-22T20:08:42.200Z,7.70
2023-02-22T20:11:11.342Z,7.70
2023-02-22T20:13:39.668Z,7.70
2023-02-22T20:16:09.356Z,7.60
2023-02-22T20:18:37.632Z,7.60
2023-02-22T20:21:09.468Z,7.70
2023-02-22T20:23:40.626Z,7.60
2023-02-22T20:26:16.011Z,7.60
2023-02-22T20:28:43.920Z,7.60
2023-02-22T20:31:13.702Z,7.60
2023-02-22T20:33:42.666Z,7.60
2023-02-22T20:36:11.688Z,7.60
2023-02-22T20:38:41.326Z,7.60
2023-02-22T20:41:10.760Z,7.50
2023-02-22T20:43:39.584Z,7.50
2023-02-22T20:46:08.306Z,7.50
2023-02-22T20:48:36.260Z,7.40
2023-02-22T20:51:07.376Z,7.40
2023-02-22T20:53:35.452Z,7.30
2023-02-22T20:56:05.192Z,7.30
2023-02-22T20:58:33.203Z,7.30
2023-02-22T21:01:06.120Z,7.20
2023-02-22T21:03:34.485Z,7.20
2023-02-22T21:06:02.630Z,7.10
2023-02-22T21:08:31.157Z,7.10
2023-02-22T21:10:59.289Z,7.10
2023-02-22T21:13:28.581Z,7.00
2023-02-22T21:15:56.674Z,7.40
2023-02-22T21:18:25.147Z,6.90
2023-02-22T21:20:53.707Z,6.80
2023-02-22T21:23:21.604Z,6.80
2023-02-22T21:25:53.038Z,6.90
2023-02-22T21:28:20.978Z,6.70
2023-02-22T21:30:50.439Z,6.70
2023-02-22T21:33:18.362Z,6.70
2023-02-22T21:35:47.062Z,6.70
2023-02-22T21:38:15.405Z,7.00
2023-02-22T21:40:46.432Z,6.70
2023-02-22T21:43:14.369Z,6.90
2023-02-22T21:45:42.226Z,6.70
2023-02-22T21:48:11.479Z,6.60
2023-02-22T21:50:39.341Z,6.60
2023-02-22T21:53:07.401Z,6.70
2023-02-22T21:55:38.017Z,6.70
2023-02-22T21:58:06.322Z,6.70
2023-02-22T22:00:38.171Z,6.70
2023-02-22T22:03:09.724Z,6.70
2023-02-22T22:05:45.102Z,6.70
2023-02-22T22:08:19.321Z,6.70
2023-02-22T22:10:54.989Z,6.70
2023-02-22T22:13:23.152Z,6.80
2023-02-22T22:15:51.382Z,7.20
2023-02-22T22:18:20.227Z,6.90
2023-02-22T22:20:51.716Z,6.90
2023-02-22T22:23:19.597Z,6.90
2023-02-22T22:25:51.059Z,6.90
2023-02-22T22:28:18.962Z,7.60
2023-02-22T22:30:46.956Z,6.90
2023-02-22T22:33:14.886Z,6.90
2023-02-22T22:35:42.744Z,7.50
2023-02-22T22:38:13.748Z,7.60
2023-02-22T22:40:41.636Z,6.90
2023-02-22T22:43:09.548Z,6.90
2023-02-22T22:45:38.707Z,6.90
2023-02-22T22:48:06.931Z,6.90
2023-02-22T22:50:35.290Z,6.90
2023-02-22T22:53:03.172Z,6.90
2023-02-22T22:55:32.564Z,6.90
2023-02-22T22:58:00.778Z,6.90
2023-02-22T23:00:35.872Z,6.90
2023-02-22T23:03:05.549Z,6.90
2023-02-22T23:05:38.161Z,7.00
2023-02-22T23:08:10.882Z,7.00
2023-02-22T23:10:41.048Z,7.00
2023-02-22T23:13:12.293Z,7.00
2023-02-22T23:15:43.218Z,7.00
2023-02-22T23:18:12.344Z,8.00
2023-02-22T23:20:40.202Z,7.00
2023-02-22T23:23:14.531Z,7.10
2023-02-22T23:25:43.757Z,7.10
2023-02-22T23:28:14.730Z,7.50
2023-02-22T23:30:42.945Z,7.20
2023-02-22T23:33:11.144Z,7.20
2023-02-22T23:35:38.984Z,7.20
2023-02-22T23:38:08.109Z,7.20
2023-02-22T23:40:37.527Z,7.20
2023-02-22T23:43:07.591Z,7.20
2023-02-22T23:45:38.502Z,7.10
2023-02-22T23:48:07.005Z,7.10
2023-02-22T23:50:36.371Z,7.10
2023-02-22T23:53:05.854Z,7.00
2023-02-22T23:55:39.046Z,7.00
2023-02-22T23:58:08.372Z,7.60
